Time;durP1;ratioP1;P1;durP2;ratioP2;P2;SDS_P1;SDS_P2;PMS_P1;PMS_P2;Temp;Humidity;BMP_temperature;BMP_pressure;BME280_temperature;BME280_humidity;BME280_pressure;Samples;Min_cycle;Max_cycle;Signal;HPM_P1;HPM_P2
2022/10/28 00:01:06;;;;;;;;;5.40;4.40;;;;;20.66;62.78;100192.63;5097169;28;8898;-63
2022/10/28 00:03:34;;;;;;;;;2.20;2.20;;;;;20.70;62.75;100183.09;5097253;28;8826;-63
2022/10/28 00:06:02;;;;;;;;;4.00;4.00;;;;;20.73;62.20;100193.59;5097224;28;9558;-62
2022/10/28 00:08:30;;;;;;;;;4.60;4.00;;;;;20.77;62.27;100186.78;5097292;28;8830;-63
2022/10/28 00:10:57;;;;;;;;;5.00;5.00;;;;;20.82;62.16;100187.91;5096680;28;8834;-63
2022/10/28 00:13:25;;;;;;;;;2.80;2.40;;;;;20.86;61.64;100180.25;5097635;28;9491;-62
2022/10/28 00:15:53;;;;;;;;;4.00;3.20;;;;;20.86;62.10;100182.97;5097145;28;8834;-62
2022/10/28 00:18:20;;;;;;;;;5.00;5.00;;;;;20.88;62.17;100180.13;5096659;28;8829;-63
2022/10/28 00:20:48;;;;;;;;;5.00;5.00;;;;;20.88;61.55;100187.22;5096336;28;8844;-63
2022/10/28 00:23:16;;;;;;;;;5.00;4.00;;;;;20.85;62.28;100186.72;5096491;28;8890;-62
2022/10/28 00:25:43;;;;;;;;;5.00;5.00;;;;;20.78;62.40;100186.59;5096750;28;8818;-62
2022/10/28 00:28:11;;;;;;;;;5.40;4.40;;;;;20.72;62.42;100175.66;5096577;28;8845;-62
2022/10/28 00:30:39;;;;;;;;;5.00;5.00;;;;;20.71;62.37;100179.38;5096819;28;8842;-63
2022/10/28 00:33:06;;;;;;;;;5.00;4.40;;;;;20.70;62.18;100172.28;5096124;28;8826;-63
2022/10/28 00:35:34;;;;;;;;;4.00;4.00;;;;;20.70;62.13;100172.28;5096231;28;8825;-61
2022/10/28 00:38:02;;;;;;;;;4.00;4.00;;;;;20.73;61.84;100166.53;5095746;28;8825;-62
2022/10/28 00:40:29;;;;;;;;;5.60;4.60;;;;;20.75;61.31;100178.81;5095593;28;8834;-62
2022/10/28 00:42:57;;;;;;;;;6.60;4.00;;;;;20.78;61.32;100164.94;5095558;28;8834;-62
2022/10/28 00:45:25;;;;;;;;;5.00;5.00;;;;;20.81;61.21;100171.88;5096431;28;8822;-61
2022/10/28 00:47:54;;;;;;;;;7.40;5.00;;;;;20.85;61.42;100165.03;5096407;28;8879;-63
2022/10/28 00:50:22;;;;;;;;;5.00;5.00;;;;;20.87;61.43;100165.75;5096438;28;9586;-63
2022/10/28 00:52:50;;;;;;;;;4.00;4.00;;;;;20.87;61.36;100163.06;5095994;28;8846;-63
2022/10/28 00:55:17;;;;;;;;;4.00;4.00;;;;;20.89;60.68;100158.28;5095771;28;8845;-62
2022/10/28 00:57:46;;;;;;;;;4.00;3.20;;;;;20.92;60.74;100157.09;5096053;28;8854;-62
2022/10/28 01:00:13;;;;;;;;;2.00;2.00;;;;;20.94;60.65;100155.84;5095919;28;8917;-63
2022/10/28 01:02:41;;;;;;;;;5.00;5.00;;;;;20.99;60.13;100145.31;5095416;28;8894;-62
2022/10/28 01:05:08;;;;;;;;;7.00;5.00;;;;;21.03;59.89;100143.94;5095649;28;8837;-62
2022/10/28 01:07:36;;;;;;;;;4.40;4.40;;;;;21.04;59.84;100126.66;5095395;28;8830;-61
2022/10/28 01:10:04;;;;;;;;;5.40;4.20;;;;;21.04;59.58;100126.66;5096280;28;8814;-62
2022/10/28 01:12:32;;;;;;;;;2.00;2.00;;;;;21.08;59.84;100134.25;5095115;28;8822;-63
2022/10/28 01:15:00;;;;;;;;;7.80;6.60;;;;;21.10;59.83;100120.53;5095994;28;9488;-62
2022/10/28 01:17:28;;;;;;;;;5.00;5.00;;;;;21.12;59.34;100123.88;5095520;28;8915;-63
2022/10/28 01:19:55;;;;;;;;;5.00;5.00;;;;;21.13;59.61;100122.84;5095736;28;8838;-62
2022/10/28 01:22:23;;;;;;;;;6.60;6.60;;;;;21.14;59.32;100127.22;5095797;28;8914;-61
2022/10/28 01:24:51;;;;;;;;;4.00;4.00;;;;;21.13;59.32;100131.84;5095536;28;8898;-62
2022/10/28 01:27:19;;;;;;;;;5.40;4.60;;;;;21.13;59.60;100125.56;5094803;28;8858;-62
2022/10/28 01:29:46;;;;;;;;;5.00;5.00;;;;;21.12;59.72;100118.47;5095229;28;8822;-61
2022/10/28 01:32:14;;;;;;;;;5.00;5.00;;;;;21.12;59.46;100113.03;5095025;28;9500;-63
2022/10/28 01:34:42;;;;;;;;;5.00;4.40;;;;;21.12;59.67;100119.28;5095306;28;8814;-61
2022/10/28 01:37:09;;;;;;;;;4.60;4.00;;;;;21.13;60.01;100109.31;5095217;28;8842;-61
2022/10/28 01:39:37;;;;;;;;;2.00;2.00;;;;;21.14;59.97;100108.28;5095077;28;8902;-62
2022/10/28 01:42:05;;;;;;;;;4.40;4.00;;;;;21.16;59.25;100111.63;5094819;28;8853;-62
2022/10/28 01:44:32;;;;;;;;;4.40;4.20;;;;;21.19;59.19;100095.84;5095152;28;8811;-63
2022/10/28 01:47:00;;;;;;;;;4.00;4.00;;;;;21.21;59.03;100095.66;5095476;28;9495;-63
2022/10/28 01:49:28;;;;;;;;;5.20;5.00;;;;;21.23;59.10;100094.47;5095361;28;8907;-61
2022/10/28 01:51:55;;;;;;;;;5.00;5.00;;;;;21.28;58.53;100102.88;5094910;28;8826;-64
2022/10/28 01:54:23;;;;;;;;;0.60;0.60;;;;;21.32;58.78;100097.91;5095368;28;8887;-61
2022/10/28 01:56:51;;;;;;;;;4.80;3.60;;;;;21.34;58.70;100104.00;5094949;28;8826;-62
2022/10/28 01:59:19;;;;;;;;;2.40;2.40;;;;;21.34;59.09;100110.25;5095036;28;8947;-61
2022/10/28 02:01:47;;;;;;;;;2.00;2.00;;;;;21.33;58.47;100122.13;5095335;28;8806;-63
2022/10/28 02:04:15;;;;;;;;;5.60;4.80;;;;;21.28;59.16;100118.28;5094919;28;8821;-62
2022/10/28 02:06:42;;;;;;;;;4.20;4.00;;;;;21.26;59.24;100120.34;5094533;28;8830;-63
2022/10/28 02:09:10;;;;;;;;;4.00;4.00;;;;;21.24;59.32;100117.81;5094752;28;8890;-61
2022/10/28 02:11:38;;;;;;;;;4.00;2.80;;;;;21.22;58.90;100119.03;5094515;28;8861;-63
2022/10/28 02:14:05;;;;;;;;;2.80;2.80;;;;;21.24;59.10;100122.38;5094963;28;8822;-63
2022/10/28 02:16:33;;;;;;;;;5.00;4.20;;;;;21.27;58.69;100112.00;5095329;28;8910;-61
2022/10/28 02:19:01;;;;;;;;;1.00;0.20;;;;;21.28;58.98;100102.88;5095360;28;8822;-62
2022/10/28 02:21:28;;;;;;;;;4.20;4.20;;;;;21.31;58.60;100104.34;5095299;28;8846;-63
2022/10/28 02:23:57;;;;;;;;;5.00;4.00;;;;;21.30;58.54;100099.97;5096091;28;8849;-62
2022/10/28 02:26:25;;;;;;;;;4.40;4.20;;;;;21.29;58.79;100101.84;5098867;28;8914;-63
2022/10/28 02:28:53;;;;;;;;;4.00;4.00;;;;;21.29;58.88;100103.72;5099434;28;8869;-63
2022/10/28 02:31:21;;;;;;;;;4.80;4.20;;;;;21.24;59.03;100098.84;5099314;28;8910;-63
2022/10/28 02:33:48;;;;;;;;;4.20;4.20;;;;;21.24;58.90;100084.44;5098989;28;8916;-61
2022/10/28 02:36:16;;;;;;;;;2.00;2.00;;;;;21.26;58.90;100093.25;5098516;28;8882;-63
2022/10/28 02:38:44;;;;;;;;;2.40;2.40;;;;;21.27;59.15;100092.22;5098929;28;8915;-62
2022/10/28 02:41:11;;;;;;;;;3.20;2.00;;;;;21.31;58.68;100090.81;5098658;28;9189;-62
2022/10/28 02:43:39;;;;;;;;;2.00;2.00;;;;;21.33;57.97;100099.63;5098697;28;8853;-63
2022/10/28 02:46:07;;;;;;;;;6.00;5.00;;;;;21.35;58.33;100084.00;5098901;28;8914;-63
2022/10/28 02:48:35;;;;;;;;;0.40;0.00;;;;;21.35;58.13;100079.41;5098887;28;8810;-61
2022/10/28 02:51:02;;;;;;;;;4.80;4.20;;;;;21.36;58.04;100080.25;5098808;28;9534;-61
2022/10/28 02:53:30;;;;;;;;;4.00;4.00;;;;;21.36;58.13;100088.38;5098356;28;9499;-60
2022/10/28 02:55:57;;;;;;;;;4.60;4.00;;;;;21.35;57.64;100087.53;5098012;28;8845;-61
2022/10/28 02:58:25;;;;;;;;;4.00;2.80;;;;;21.38;58.32;100091.75;5097672;28;8862;-63
2022/10/28 03:00:53;;;;;;;;;3.60;2.80;;;;;21.38;57.92;100098.03;5097483;28;8822;-61
2022/10/28 03:03:21;;;;;;;;;2.40;2.00;;;;;21.39;57.76;100090.72;5097554;28;8837;-62
2022/10/28 03:05:48;;;;;;;;;3.20;3.20;;;;;21.40;57.83;100090.53;5098020;28;8854;-62
2022/10/28 03:08:16;;;;;;;;;2.80;2.80;;;;;21.40;58.01;100084.28;5098156;28;8830;-62
2022/10/28 03:10:44;;;;;;;;;4.00;4.00;;;;;21.36;57.70;100082.97;5098002;28;8902;-62
2022/10/28 03:13:11;;;;;;;;;4.20;4.00;;;;;21.33;58.34;100073.34;5098340;28;8841;-63
2022/10/28 03:15:39;;;;;;;;;4.80;4.00;;;;;21.29;57.79;100072.06;5098081;28;8826;-62
2022/10/28 03:18:06;;;;;;;;;4.00;4.00;;;;;21.27;57.99;100065.13;5097940;28;8849;-61
2022/10/28 03:20:34;;;;;;;;;1.40;1.00;;;;;21.30;58.17;100070.16;5097812;28;8829;-61
2022/10/28 03:23:02;;;;;;;;;2.80;1.80;;;;;21.35;57.90;100070.44;5097944;28;8907;-63
2022/10/28 03:25:29;;;;;;;;;4.80;4.80;;;;;21.36;58.16;100066.72;5097771;28;8910;-62
2022/10/28 03:27:57;;;;;;;;;6.00;4.60;;;;;21.38;57.99;100060.06;5098165;28;8895;-64
2022/10/28 03:30:25;;;;;;;;;4.80;4.80;;;;;21.38;57.80;100062.78;5097584;28;8857;-63
2022/10/28 03:32:52;;;;;;;;;5.00;3.60;;;;;21.36;57.72;100062.16;5097648;28;8922;-63
2022/10/28 03:35:20;;;;;;;;;4.60;4.00;;;;;21.35;57.51;100060.44;5096765;28;9392;-63
2022/10/28 03:37:48;;;;;;;;;4.80;4.80;;;;;21.35;57.62;100059.63;5097840;28;8826;-63
2022/10/28 03:40:16;;;;;;;;;5.00;4.60;;;;;21.37;57.14;100058.41;5097460;28;8826;-63
2022/10/28 03:42:44;;;;;;;;;4.00;2.00;;;;;21.35;57.72;100065.84;5097738;28;8826;-63
2022/10/28 03:45:12;;;;;;;;;4.00;4.00;;;;;21.32;57.12;100060.81;5097081;28;8838;-61
2022/10/28 03:47:39;;;;;;;;;3.20;2.00;;;;;21.27;57.46;100054.28;5096764;28;8918;-63
2022/10/28 03:50:07;;;;;;;;;3.20;2.00;;;;;21.23;57.60;100056.53;5096754;28;8844;-63
2022/10/28 03:52:35;;;;;;;;;5.00;4.00;;;;;21.19;57.52;100055.22;5096865;28;9495;-62
2022/10/28 03:55:03;;;;;;;;;4.60;4.00;;;;;21.17;57.74;100059.13;5095553;28;8910;-63
2022/10/28 03:57:31;;;;;;;;;4.40;4.40;;;;;21.12;57.81;100059.69;5095419;28;8854;-61
2022/10/28 03:59:58;;;;;;;;;6.40;4.80;;;;;21.07;57.82;100055.88;5095606;28;8850;-61
2022/10/28 04:02:26;;;;;;;;;4.00;3.60;;;;;21.01;57.80;100057.47;5096568;28;8826;-62
2022/10/28 04:04:54;;;;;;;;;4.00;4.00;;;;;20.98;57.94;100051.56;5096967;28;9570;-63
2022/10/28 04:07:22;;;;;;;;;2.40;2.00;;;;;20.90;58.27;100048.94;5096788;28;8845;-62
2022/10/28 04:09:50;;;;;;;;;4.00;3.60;;;;;20.86;58.57;100036.75;5097169;28;8894;-62
2022/10/28 04:12:17;;;;;;;;;5.20;5.00;;;;;20.83;58.19;100047.97;5096686;28;8833;-63
2022/10/28 04:14:47;;;;;;;;;3.60;3.60;;;;;20.83;58.44;100045.25;5097364;28;8822;-63
2022/10/28 04:17:14;;;;;;;;;2.80;2.80;;;;;20.83;58.11;100047.97;5096732;28;8872;-61
2022/10/28 04:19:42;;;;;;;;;2.00;1.40;;;;;20.77;58.65;100052.25;5096819;28;8842;-63
2022/10/28 04:22:09;;;;;;;;;3.20;3.20;;;;;20.71;58.81;100045.91;5096690;28;8830;-62
2022/10/28 04:24:37;;;;;;;;;4.80;4.00;;;;;20.64;58.79;100055.78;5096657;28;8906;-61
2022/10/28 04:27:05;;;;;;;;;4.80;4.80;;;;;20.59;59.07;100045.50;5097434;28;8830;-62
2022/10/28 04:29:33;;;;;;;;;5.00;4.40;;;;;20.55;58.74;100044.16;5096825;28;8842;-60
2022/10/28 04:32:00;;;;;;;;;4.20;2.80;;;;;20.50;58.90;100052.03;5096844;28;8818;-61
2022/10/28 04:34:28;;;;;;;;;4.00;4.00;;;;;20.44;59.18;100058.16;5097711;28;8826;-61
2022/10/28 04:36:56;;;;;;;;;2.40;2.40;;;;;20.38;59.35;100050.75;5096683;28;8826;-61
2022/10/28 04:39:24;;;;;;;;;4.60;3.80;;;;;20.34;59.44;100041.31;5097029;28;8889;-63
2022/10/28 04:41:51;;;;;;;;;1.40;1.00;;;;;20.33;59.63;100049.63;5095968;28;8822;-63
2022/10/28 04:44:19;;;;;;;;;5.00;5.00;;;;;20.33;59.51;100036.91;5095928;28;8821;-63
2022/10/28 04:46:46;;;;;;;;;4.40;4.40;;;;;20.32;59.65;100054.19;5096004;28;8887;-63
2022/10/28 04:49:14;;;;;;;;;5.40;5.40;;;;;20.32;59.66;100042.53;5095756;28;8830;-63
2022/10/28 04:51:42;;;;;;;;;4.20;4.20;;;;;20.32;59.37;100051.47;5095538;28;9231;-63
2022/10/28 04:54:10;;;;;;;;;5.20;4.00;;;;;20.32;59.13;100048.78;5095793;28;8826;-63
2022/10/28 04:56:37;;;;;;;;;4.60;4.20;;;;;20.30;59.55;100040.00;5094064;28;8921;-62
2022/10/28 04:59:05;;;;;;;;;4.60;4.60;;;;;20.29;59.62;100038.31;5094821;28;9492;-63
2022/10/28 05:01:32;;;;;;;;;4.40;2.40;;;;;20.28;59.41;100031.22;5094630;28;8818;-63
2022/10/28 05:04:01;;;;;;;;;3.40;3.20;;;;;20.25;59.40;100037.00;5095153;28;8924;-63
2022/10/28 05:06:28;;;;;;;;;4.00;4.00;;;;;20.21;59.42;100043.81;5095216;28;8830;-62
2022/10/28 05:08:56;;;;;;;;;6.60;4.80;;;;;20.21;59.46;100037.53;5094576;28;8840;-63
2022/10/28 05:11:24;;;;;;;;;4.00;4.00;;;;;20.24;59.33;100038.00;5094408;28;8856;-62
2022/10/28 05:13:53;;;;;;;;;4.00;4.00;;;;;20.23;59.65;100033.63;5094563;28;8895;-63
2022/10/28 05:16:20;;;;;;;;;3.60;3.60;;;;;20.21;59.71;100037.53;5094488;28;8914;-62
2022/10/28 05:18:48;;;;;;;;;4.80;4.80;;;;;20.18;59.34;100040.63;5093980;28;8826;-63
2022/10/28 05:21:16;;;;;;;;;4.80;2.00;;;;;20.16;59.67;100045.38;5093570;28;8826;-63
2022/10/28 05:23:43;;;;;;;;;5.00;5.00;;;;;20.13;59.69;100049.28;5093271;28;8822;-62
2022/10/28 05:26:11;;;;;;;;;3.80;3.60;;;;;20.11;59.76;100043.19;5092868;28;8838;-63
2022/10/28 05:28:39;;;;;;;;;4.00;4.00;;;;;20.07;60.10;100054.53;5093704;28;8897;-62
2022/10/28 05:31:06;;;;;;;;;6.20;4.80;;;;;20.03;60.35;100047.78;5092832;28;8825;-62
2022/10/28 05:33:34;;;;;;;;;5.00;4.00;;;;;20.04;60.06;100038.66;5092291;28;8964;-61
2022/10/28 05:36:02;;;;;;;;;4.20;2.00;;;;;20.05;60.37;100043.06;5092675;28;8826;-61
2022/10/28 05:38:29;;;;;;;;;5.40;5.00;;;;;20.03;59.93;100048.63;5092243;28;8841;-62
2022/10/28 05:40:58;;;;;;;;;5.40;5.40;;;;;20.02;60.61;100041.53;5092028;28;8888;-63
2022/10/28 05:43:25;;;;;;;;;5.20;4.80;;;;;20.00;60.41;100048.97;5090854;28;8993;-61
2022/10/28 05:45:53;;;;;;;;;4.00;4.00;;;;;19.96;60.44;100047.66;5090891;28;9823;-62
2022/10/28 05:48:20;;;;;;;;;2.00;2.00;;;;;19.93;60.72;100050.72;5091692;28;8869;-63
2022/10/28 05:50:48;;;;;;;;;1.00;1.00;;;;;19.92;60.66;100051.75;5092054;28;8854;-63
2022/10/28 05:53:18;;;;;;;;;5.00;4.60;;;;;19.93;60.36;100053.41;5092928;28;9511;-63
2022/10/28 05:55:46;;;;;;;;;5.00;5.00;;;;;19.97;60.66;100037.69;5091738;28;8919;-63
2022/10/28 05:58:15;;;;;;;;;5.80;5.40;;;;;19.98;60.38;100040.22;5092460;28;9617;-62
2022/10/28 06:00:42;;;;;;;;;5.00;5.00;;;;;19.98;60.23;100053.75;5098559;28;8875;-62
2022/10/28 06:03:11;;;;;;;;;4.60;4.40;;;;;20.01;60.85;100047.97;5098447;28;9507;-63
2022/10/28 06:05:39;;;;;;;;;5.80;4.60;;;;;20.02;60.48;100046.94;5098293;28;8841;-62
2022/10/28 06:08:06;;;;;;;;;5.40;5.40;;;;;20.02;60.49;100054.22;5097433;28;8830;-62
2022/10/28 06:10:34;;;;;;;;;5.80;5.00;;;;;20.01;60.62;100056.06;5096987;28;8841;-62
2022/10/28 06:13:02;;;;;;;;;5.00;5.00;;;;;20.02;60.78;100065.03;5097166;28;8900;-62
2022/10/28 06:15:29;;;;;;;;;4.60;4.60;;;;;20.00;60.86;100057.09;5098084;28;8936;-61
2022/10/28 06:17:57;;;;;;;;;4.80;4.80;;;;;19.99;61.06;100057.25;5097676;28;9341;-61
2022/10/28 06:20:25;;;;;;;;;6.60;5.00;;;;;20.00;60.75;100056.25;5096703;28;8880;-61
2022/10/28 06:22:53;;;;;;;;;4.40;2.00;;;;;20.02;60.89;100063.16;5097551;28;9527;-62
2022/10/28 06:25:21;;;;;;;;;6.20;4.80;;;;;20.04;60.68;100071.09;5098030;28;8818;-62
2022/10/28 06:27:49;;;;;;;;;6.20;4.80;;;;;20.04;60.83;100068.41;5098527;28;8838;-60
2022/10/28 06:30:17;;;;;;;;;5.80;4.20;;;;;20.04;60.76;100071.94;5098891;28;8856;-63
2022/10/28 06:32:45;;;;;;;;;5.40;5.40;;;;;20.04;60.81;100080.03;5098118;28;8834;-63
2022/10/28 06:35:12;;;;;;;;;4.00;4.00;;;;;20.03;60.62;100077.53;5099624;28;8818;-62
2022/10/28 06:37:40;;;;;;;;;6.60;4.00;;;;;20.03;61.16;100080.25;5098606;28;8822;-63
2022/10/28 06:40:08;;;;;;;;;3.60;3.60;;;;;20.02;60.52;100083.97;5097933;28;8852;-62
2022/10/28 06:42:36;;;;;;;;;6.60;4.80;;;;;20.02;60.55;100094.78;5098347;28;8838;-62
2022/10/28 06:45:04;;;;;;;;;5.80;5.00;;;;;20.05;61.01;100089.03;5097983;28;8846;-61
2022/10/28 06:47:32;;;;;;;;;5.00;4.60;;;;;20.06;60.96;100093.41;5096934;28;8822;-62
2022/10/28 06:50:05;;;;;;;;;8.00;7.00;;;;;20.05;60.64;100089.91;5097020;28;8837;-63
2022/10/28 06:52:33;;;;;;;;;4.40;4.40;;;;;20.05;60.87;100098.00;5098637;28;8826;-61
2022/10/28 06:55:01;;;;;;;;;8.40;6.60;;;;;20.07;60.29;100098.66;5099077;28;8838;-62
2022/10/28 06:57:29;;;;;;;;;4.00;4.00;;;;;20.11;60.56;100091.84;5099171;28;8846;-61
2022/10/28 06:59:56;;;;;;;;;3.60;3.20;;;;;20.15;60.32;100092.34;5099368;28;8852;-61
2022/10/28 07:02:24;;;;;;;;;6.60;6.60;;;;;20.17;60.49;100088.44;5099359;28;8842;-62
2022/10/28 07:04:52;;;;;;;;;5.40;5.00;;;;;20.19;60.82;100093.69;5099051;28;8841;-62
2022/10/28 07:07:20;;;;;;;;;6.20;4.00;;;;;20.20;60.78;100089.94;5098871;28;8830;-63
2022/10/28 07:09:48;;;;;;;;;6.80;5.80;;;;;20.21;60.38;100094.34;5096756;28;8841;-62
2022/10/28 07:12:16;;;;;;;;;7.00;7.00;;;;;20.23;60.99;100090.44;5092137;28;8842;-60
2022/10/28 07:14:49;;;;;;;;;4.00;4.00;;;;;20.28;60.34;100100.72;5090843;28;8833;-63
2022/10/28 07:17:17;;;;;;;;;5.00;4.60;;;;;20.34;60.61;100110.81;5091218;28;8829;-61
2022/10/28 07:19:45;;;;;;;;;6.40;5.80;;;;;20.37;60.44;100108.59;5091473;28;8838;-62
2022/10/28 07:22:13;;;;;;;;;5.80;5.40;;;;;20.38;60.44;100117.53;5091098;28;8845;-63
2022/10/28 07:24:41;;;;;;;;;10.00;8.00;;;;;20.41;60.27;100117.19;5090610;28;8857;-62
2022/10/28 07:27:09;;;;;;;;;4.80;4.40;;;;;20.42;60.17;100125.16;5091574;28;8853;-62
2022/10/28 07:29:37;;;;;;;;;7.00;6.60;;;;;20.44;60.24;100123.09;5092636;28;8826;-61
2022/10/28 07:32:05;;;;;;;;;5.00;4.00;;;;;20.44;60.41;100124.94;5093806;28;8853;-63
2022/10/28 07:34:33;;;;;;;;;4.00;4.00;;;;;20.46;60.48;100126.44;5093135;28;8892;-62
2022/10/28 07:37:01;;;;;;;;;4.40;3.20;;;;;20.50;60.11;100119.66;5093140;28;8845;-62
2022/10/28 07:39:29;;;;;;;;;6.60;6.60;;;;;20.53;60.38;100134.69;5093443;28;8826;-61
2022/10/28 07:41:57;;;;;;;;;8.20;6.60;;;;;20.61;59.60;100127.34;5093310;28;8972;-61
2022/10/28 07:44:25;;;;;;;;;4.20;4.20;;;;;20.67;59.63;100132.03;5092402;28;8834;-63
2022/10/28 07:46:53;;;;;;;;;2.00;2.00;;;;;20.77;59.92;100134.50;5094536;28;8844;-62
2022/10/28 07:49:24;;;;;;;;;5.00;4.60;;;;;20.92;59.24;100130.00;5092747;28;8838;-61
2022/10/28 07:51:52;;;;;;;;;5.00;4.80;;;;;21.02;59.10;100123.31;5091320;28;8853;-60
2022/10/28 07:54:20;;;;;;;;;6.20;6.20;;;;;21.09;58.91;100113.41;5092020;28;8841;-63
2022/10/28 07:56:49;;;;;;;;;7.60;6.60;;;;;21.10;58.80;100113.22;5090456;28;8841;-61
2022/10/28 07:59:19;;;;;;;;;7.60;7.40;;;;;21.13;58.89;100114.72;5089804;28;8876;-61
2022/10/28 08:01:53;;;;;;;;;5.80;5.80;;;;;21.18;58.95;100113.13;5090406;28;8968;-62
2022/10/28 08:04:21;;;;;;;;;4.60;4.00;;;;;21.27;58.81;100122.03;5090371;28;8840;-61
2022/10/28 08:06:49;;;;;;;;;5.00;5.00;;;;;21.34;58.53;100115.66;5090770;28;8850;-63
2022/10/28 08:09:18;;;;;;;;;6.20;5.80;;;;;21.43;58.16;100113.72;5091179;28;8979;-61
2022/10/28 08:11:45;;;;;;;;;4.00;4.00;;;;;21.48;58.65;100103.16;5091570;28;8854;-61
2022/10/28 08:14:13;;;;;;;;;5.00;4.80;;;;;21.52;58.25;100115.28;5090967;28;8852;-62
2022/10/28 08:16:41;;;;;;;;;5.80;5.00;;;;;21.56;58.07;100117.44;5091141;28;8833;-62
2022/10/28 08:19:09;;;;;;;;;7.00;5.00;;;;;21.62;57.91;100121.25;5092115;28;8856;-62
2022/10/28 08:21:37;;;;;;;;;4.20;4.20;;;;;21.66;58.37;100118.06;5092584;28;8838;-61
2022/10/28 08:24:05;;;;;;;;;1.80;1.40;;;;;21.73;57.98;100118.13;5092747;28;8922;-61
2022/10/28 08:26:33;;;;;;;;;4.60;4.20;;;;;21.76;58.02;100124.00;5092905;28;8924;-61
2022/10/28 08:29:01;;;;;;;;;7.00;6.40;;;;;21.78;57.60;100121.13;5093167;28;8830;-61
2022/10/28 08:31:29;;;;;;;;;7.20;6.80;;;;;21.79;57.86;100126.34;5092812;28;8830;-62
2022/10/28 08:33:57;;;;;;;;;5.20;5.00;;;;;21.79;58.41;100131.75;5091588;28;8980;-61
2022/10/28 08:36:27;;;;;;;;;2.40;2.00;;;;;21.78;57.73;100113.81;5091730;28;8825;-63
2022/10/28 08:38:55;;;;;;;;;5.60;5.60;;;;;21.81;57.78;100120.72;5091826;28;9593;-62
2022/10/28 08:41:23;;;;;;;;;6.80;5.00;;;;;21.86;58.07;100121.00;5091167;28;8861;-63
2022/10/28 08:43:51;;;;;;;;;6.20;5.80;;;;;21.92;57.59;100122.94;5090968;28;8857;-61
2022/10/28 08:46:24;;;;;;;;;6.20;5.20;;;;;21.96;57.51;100119.69;5092234;28;8850;-61
2022/10/28 08:48:52;;;;;;;;;4.80;4.80;;;;;21.98;57.78;100117.63;5092988;28;8829;-61
2022/10/28 08:51:20;;;;;;;;;5.80;5.00;;;;;22.00;57.90;100115.53;5092684;28;8818;-61
2022/10/28 08:53:48;;;;;;;;;5.80;4.40;;;;;22.03;57.80;100108.91;5092998;28;9528;-61
2022/10/28 08:56:16;;;;;;;;;3.60;2.40;;;;;22.05;57.75;100110.41;5092696;28;9118;-61
2022/10/28 08:58:44;;;;;;;;;8.00;5.40;;;;;22.06;57.67;100105.81;5093003;28;8853;-61
2022/10/28 09:01:12;;;;;;;;;8.20;7.00;;;;;22.06;57.88;100108.50;5092027;28;8915;-63
2022/10/28 09:03:40;;;;;;;;;7.80;6.60;;;;;22.03;58.03;100104.31;5092539;28;8822;-61
2022/10/28 09:06:08;;;;;;;;;5.00;5.00;;;;;22.01;57.64;100105.56;5092068;28;8952;-61
2022/10/28 09:08:36;;;;;;;;;5.00;5.00;;;;;21.98;57.65;100105.91;5092065;28;8838;-61
2022/10/28 09:11:04;;;;;;;;;5.60;5.00;;;;;21.95;58.08;100099.00;5090892;28;8841;-62
2022/10/28 09:13:32;;;;;;;;;7.20;5.80;;;;;21.92;58.06;100095.81;5089193;28;8853;-61
2022/10/28 09:16:00;;;;;;;;;6.80;6.80;;;;;21.89;57.91;100098.94;5089536;28;8830;-62
2022/10/28 09:18:28;;;;;;;;;5.00;4.00;;;;;21.90;57.89;100097.88;5089082;28;8845;-61
2022/10/28 09:20:56;;;;;;;;;7.20;6.80;;;;;21.91;58.07;100097.72;5089069;28;8837;-63
2022/10/28 09:23:24;;;;;;;;;6.40;5.00;;;;;21.93;58.16;100094.81;5089299;28;8974;-61
2022/10/28 09:25:52;;;;;;;;;5.60;5.60;;;;;21.94;57.86;100088.34;5089868;28;8837;-61
2022/10/28 09:28:20;;;;;;;;;9.00;8.00;;;;;21.99;57.70;100085.88;5089343;28;8869;-62
2022/10/28 09:30:48;;;;;;;;;6.20;5.20;;;;;22.04;57.95;100097.88;5090165;28;8920;-61
2022/10/28 09:33:16;;;;;;;;;2.00;1.80;;;;;22.12;57.63;100080.63;5089978;28;8848;-62
2022/10/28 09:35:44;;;;;;;;;5.40;5.00;;;;;22.23;57.47;100086.38;5090746;28;8911;-61
2022/10/28 09:38:12;;;;;;;;;5.80;4.80;;;;;22.35;57.56;100084.84;5090526;28;8838;-62
2022/10/28 09:40:40;;;;;;;;;5.80;5.00;;;;;22.49;57.11;100088.56;5090753;28;8834;-61
2022/10/28 09:43:08;;;;;;;;;5.20;5.00;;;;;22.60;56.80;100079.88;5091219;28;8834;-61
2022/10/28 09:45:36;;;;;;;;;4.80;4.20;;;;;22.71;56.53;100088.38;5092023;28;8906;-61
2022/10/28 09:48:04;;;;;;;;;4.40;4.40;;;;;22.76;56.45;100077.72;5090887;28;8960;-61
2022/10/28 09:50:32;;;;;;;;;4.00;2.00;;;;;22.93;56.32;100081.00;5090889;28;8842;-61
2022/10/28 09:53:00;;;;;;;;;5.40;5.00;;;;;23.23;55.51;100077.91;5091521;28;8841;-60
2022/10/28 09:55:29;;;;;;;;;4.00;4.00;;;;;23.83;54.36;100082.63;5090708;28;8826;-61
2022/10/28 09:57:57;;;;;;;;;5.40;5.40;;;;;24.60;52.69;100073.03;5091241;28;8866;-63
2022/10/28 10:00:25;;;;;;;;;5.00;5.00;;;;;25.48;50.80;100073.38;5090345;28;8826;-63
2022/10/28 10:02:53;;;;;;;;;6.60;6.00;;;;;26.08;49.60;100074.63;5091106;28;8842;-62
2022/10/28 10:05:21;;;;;;;;;1.00;1.00;;;;;26.66;48.75;100075.34;5090119;28;8825;-62
2022/10/28 10:07:49;;;;;;;;;2.20;2.20;;;;;27.20;48.09;100068.16;5089999;28;8984;-63
2022/10/28 10:10:17;;;;;;;;;5.20;3.80;;;;;27.61;47.58;100072.97;5088621;28;8841;-63
2022/10/28 10:12:45;;;;;;;;;3.40;3.40;;;;;27.95;47.17;100066.88;5088417;28;9202;-61
2022/10/28 10:15:17;;;;;;;;;2.00;1.00;;;;;28.26;47.07;100063.91;5088325;28;8830;-62
2022/10/28 10:17:45;;;;;;;;;6.00;5.60;;;;;28.53;46.49;100060.56;5086914;28;8954;-63
2022/10/28 10:20:13;;;;;;;;;4.80;3.80;;;;;28.61;46.34;100062.16;5088482;28;8848;-62
2022/10/28 10:22:42;;;;;;;;;4.00;4.00;;;;;28.41;46.39;100067.09;5089208;28;8840;-61
2022/10/28 10:25:10;;;;;;;;;3.20;2.00;;;;;28.04;47.05;100076.44;5087790;28;8818;-61
2022/10/28 10:27:38;;;;;;;;;4.00;4.00;;;;;27.68;47.50;100065.53;5088387;28;9567;-62
2022/10/28 10:30:06;;;;;;;;;4.00;4.00;;;;;27.45;48.01;100074.41;5088696;28;8830;-61
2022/10/28 10:32:34;;;;;;;;;3.20;3.00;;;;;27.12;48.91;100071.16;5088052;28;8935;-61
2022/10/28 10:35:03;;;;;;;;;7.00;6.00;;;;;26.96;48.44;100070.88;5086636;28;8834;-61
2022/10/28 10:37:30;;;;;;;;;2.60;2.00;;;;;26.90;49.17;100080.81;5085989;28;8895;-61
2022/10/28 10:39:58;;;;;;;;;6.00;5.60;;;;;26.76;48.57;100081.97;5086125;28;8846;-60
2022/10/28 10:42:26;;;;;;;;;6.20;4.00;;;;;26.47;49.31;100085.31;5086033;28;8849;-61
2022/10/28 10:44:54;;;;;;;;;6.00;4.80;;;;;26.17;49.84;100089.69;5088006;28;8850;-61
2022/10/28 10:47:24;;;;;;;;;3.60;3.20;;;;;25.91;49.49;100086.25;5091184;28;8863;-61
2022/10/28 10:49:53;;;;;;;;;2.80;2.80;;;;;25.77;49.59;100082.72;5090571;28;8822;-60
2022/10/28 10:52:22;;;;;;;;;6.20;5.20;;;;;25.72;49.55;100081.69;5092379;28;8830;-60
2022/10/28 10:54:50;;;;;;;;;5.40;5.20;;;;;25.65;49.66;100081.72;5090571;28;9318;-60
2022/10/28 10:57:18;;;;;;;;;5.40;5.00;;;;;25.54;49.77;100078.81;5088387;28;8861;-61
2022/10/28 10:59:46;;;;;;;;;5.00;5.00;;;;;25.41;49.76;100081.56;5086326;28;8830;-61
2022/10/28 11:02:14;;;;;;;;;6.00;6.00;;;;;25.33;50.23;100083.69;5086450;28;8845;-61
2022/10/28 11:04:42;;;;;;;;;3.00;3.00;;;;;25.27;49.88;100088.13;5085956;28;8973;-61
2022/10/28 11:07:10;;;;;;;;;4.60;3.40;;;;;25.25;50.37;100075.75;5088077;28;8826;-61
2022/10/28 11:09:39;;;;;;;;;6.60;4.60;;;;;25.27;50.23;100070.91;5089838;28;9556;-61
2022/10/28 11:12:07;;;;;;;;;7.00;5.80;;;;;25.28;50.39;100067.13;5090964;28;9566;-61
2022/10/28 11:14:35;;;;;;;;;2.80;2.80;;;;;25.26;50.37;100071.97;5090410;28;8851;-62
2022/10/28 11:17:04;;;;;;;;;5.00;5.00;;;;;25.27;50.13;100073.63;5089766;28;8842;-61
2022/10/28 11:19:32;;;;;;;;;5.20;5.20;;;;;25.25;49.73;100064.84;5089451;28;9607;-61
2022/10/28 11:22:00;;;;;;;;;2.60;2.60;;;;;25.25;49.94;100062.94;5089346;28;8968;-61
2022/10/28 11:24:29;;;;;;;;;5.00;3.40;;;;;25.26;49.45;100053.69;5088382;28;8846;-61
2022/10/28 11:26:57;;;;;;;;;6.20;6.00;;;;;25.27;49.08;100051.81;5088791;28;8989;-60
2022/10/28 11:29:24;;;;;;;;;4.20;3.00;;;;;25.27;49.07;100047.22;5089180;28;8882;-62
2022/10/28 11:31:53;;;;;;;;;5.20;5.20;;;;;25.30;48.98;100051.38;5091053;28;8849;-62
2022/10/28 11:34:21;;;;;;;;;6.80;6.80;;;;;25.34;49.04;100044.47;5089526;28;8842;-60
2022/10/28 11:36:49;;;;;;;;;4.60;4.20;;;;;25.40;48.63;100038.16;5088326;28;8963;-61